createdAt,value
2019-05-20T00:02:27.523Z,99565.92
2019-05-20T00:04:48.761Z,99561.06
2019-05-20T00:07:13.233Z,99553.25
2019-05-20T00:09:37.783Z,99554.11
2019-05-20T00:12:02.264Z,99550.84
2019-05-20T00:14:26.758Z,99549.88
2019-05-20T00:16:51.232Z,99544.78
2019-05-20T00:19:15.681Z,99548.60
2019-05-20T00:21:40.215Z,99551.59
2019-05-20T00:24:04.804Z,99547.88
2019-05-20T00:26:29.338Z,99553.13
2019-05-20T00:28:53.804Z,99549.99
2019-05-20T00:31:18.272Z,99548.09
2019-05-20T00:33:42.748Z,99555.03
2019-05-20T00:36:07.305Z,99562.78
2019-05-20T00:38:31.803Z,99557.31
2019-05-20T00:40:56.228Z,99555.53
2019-05-20T00:43:20.689Z,99564.69
2019-05-20T00:45:45.166Z,99555.80
2019-05-20T00:48:09.606Z,99556.38
2019-05-20T00:50:35.034Z,99560.83
2019-05-20T00:52:59.615Z,99561.88
2019-05-20T00:55:27.134Z,99561.94
2019-05-20T00:57:51.665Z,99563.47
2019-05-20T01:00:16.352Z,99568.26
2019-05-20T01:02:55.774Z,99569.72
2019-05-20T01:05:07.125Z,99564.83
2019-05-20T01:07:31.621Z,99561.54
2019-05-20T01:09:56.140Z,99571.39
2019-05-20T01:12:20.688Z,99566.63
2019-05-20T01:14:45.198Z,99567.61
2019-05-20T01:17:09.683Z,99569.66
2019-05-20T01:19:34.225Z,99570.45
2019-05-20T01:21:58.723Z,99571.12
2019-05-20T01:24:23.231Z,99575.74
2019-05-20T01:26:47.864Z,99578.31
2019-05-20T01:29:12.342Z,99572.70
2019-05-20T01:31:36.836Z,99577.28
2019-05-20T01:34:01.282Z,99577.55
2019-05-20T01:36:25.821Z,99571.92
2019-05-20T01:38:50.279Z,99582.39
2019-05-20T01:41:14.873Z,99579.67
2019-05-20T01:43:39.357Z,99581.84
2019-05-20T01:46:03.946Z,99577.23
2019-05-20T01:48:28.436Z,99577.26
2019-05-20T01:50:52.905Z,99573.19
2019-05-20T01:53:17.462Z,99573.73
2019-05-20T01:55:41.920Z,99574.97
2019-05-20T01:58:06.405Z,99575.50
2019-05-20T02:00:30.859Z,99574.35
2019-05-20T02:02:55.521Z,99582.03
2019-05-20T02:05:20.042Z,99575.77
2019-05-20T02:07:44.652Z,99576.53
2019-05-20T02:10:09.695Z,99575.76
2019-05-20T02:12:34.206Z,99583.19
2019-05-20T02:15:06.170Z,99589.58
2019-05-20T02:17:30.720Z,99591.88
2019-05-20T02:19:55.236Z,99581.92
2019-05-20T02:22:19.796Z,99570.68
2019-05-20T02:24:44.310Z,99572.72
2019-05-20T02:27:08.919Z,99571.70
2019-05-20T02:29:33.480Z,99576.16
2019-05-20T02:31:57.936Z,99574.40
2019-05-20T02:34:22.448Z,99575.91
2019-05-20T02:36:46.956Z,99578.89
2019-05-20T02:39:11.537Z,99573.00
2019-05-20T02:41:36.304Z,99578.09
2019-05-20T02:44:00.848Z,99579.39
2019-05-20T02:46:25.448Z,99571.34
2019-05-20T02:48:50.008Z,99570.06
2019-05-20T02:51:16.165Z,99567.62
2019-05-20T02:53:40.649Z,99568.00
2019-05-20T02:56:05.242Z,99567.37
2019-05-20T02:58:29.763Z,99566.48
2019-05-20T03:00:54.392Z,99563.93
2019-05-20T03:03:18.974Z,99555.48
2019-05-20T03:05:43.468Z,99560.48
2019-05-20T03:08:07.947Z,99562.91
2019-05-20T03:10:32.490Z,99559.73
2019-05-20T03:12:56.944Z,99562.40
2019-05-20T03:15:21.507Z,99561.52
2019-05-20T03:17:53.906Z,99559.97
2019-05-20T03:20:18.513Z,99556.27
2019-05-20T03:22:43.064Z,99551.66
2019-05-20T03:25:08.387Z,99553.08
2019-05-20T03:27:32.959Z,99551.30
2019-05-20T03:29:57.564Z,99553.34
2019-05-20T03:32:22.010Z,99557.69
2019-05-20T03:34:57.992Z,99569.03
2019-05-20T03:37:12.634Z,99565.33
2019-05-20T03:39:37.209Z,99562.66
2019-05-20T03:42:01.676Z,99569.30
2019-05-20T03:44:26.154Z,99569.16
2019-05-20T03:46:50.613Z,99567.88
2019-05-20T03:49:15.236Z,99563.55
2019-05-20T03:51:39.787Z,99565.34
2019-05-20T03:54:04.346Z,99567.75
2019-05-20T03:56:28.784Z,99566.80
2019-05-20T03:58:53.342Z,99573.48
2019-05-20T04:01:17.828Z,99570.12
2019-05-20T04:03:42.281Z,99568.16
2019-05-20T04:06:06.820Z,99565.80
2019-05-20T04:08:31.280Z,99558.69
2019-05-20T04:10:55.903Z,99564.42
2019-05-20T04:13:20.517Z,99567.37
2019-05-20T04:15:45.000Z,99564.56
2019-05-20T04:18:09.507Z,99562.39
2019-05-20T04:20:34.072Z,99556.80
2019-05-20T04:22:58.543Z,99566.09
2019-05-20T04:25:23.045Z,99558.45
2019-05-20T04:27:47.636Z,99562.14
2019-05-20T04:30:12.576Z,99571.75
2019-05-20T04:32:37.168Z,99570.43
2019-05-20T04:35:20.495Z,99569.52
2019-05-20T04:37:28.610Z,99568.53
2019-05-20T04:39:53.178Z,99568.81
2019-05-20T04:42:17.635Z,99563.30
2019-05-20T04:44:42.164Z,99566.52
2019-05-20T04:47:06.842Z,99576.45
2019-05-20T04:49:31.395Z,99568.52
2019-05-20T04:51:55.961Z,99565.19
2019-05-20T04:54:20.531Z,99567.50
2019-05-20T04:56:45.105Z,99569.55
2019-05-20T04:59:09.669Z,99568.66
2019-05-20T05:01:34.151Z,99568.14
2019-05-20T05:03:59.392Z,99561.38
2019-05-20T05:06:23.917Z,99554.34
2019-05-20T05:08:48.439Z,99558.69
2019-05-20T05:11:13.124Z,99562.27
2019-05-20T05:13:37.646Z,99557.94
2019-05-20T05:16:02.263Z,99563.90
2019-05-20T05:18:27.172Z,99568.16
2019-05-20T05:20:51.904Z,99561.47
2019-05-20T05:23:17.002Z,99554.83
2019-05-20T05:25:41.626Z,99565.69
2019-05-20T05:28:06.216Z,99568.47
2019-05-20T05:30:30.837Z,99573.34
2019-05-20T05:32:55.421Z,99575.36
2019-05-20T05:35:20.215Z,99579.34
2019-05-20T05:37:45.049Z,99570.31
2019-05-20T05:40:09.773Z,99572.14
2019-05-20T05:42:34.237Z,99574.34
2019-05-20T05:44:58.695Z,99576.05
2019-05-20T05:47:23.202Z,99572.02
2019-05-20T05:49:47.671Z,99579.74
2019-05-20T05:52:12.134Z,99579.02
2019-05-20T05:54:36.851Z,99580.82
2019-05-20T05:57:01.413Z,99570.14
2019-05-20T05:59:25.869Z,99579.72
2019-05-20T06:01:50.362Z,99578.47
2019-05-20T06:04:14.910Z,99573.55
2019-05-20T06:06:39.465Z,99571.31
2019-05-20T06:09:05.504Z,99575.66
2019-05-20T06:11:29.986Z,99570.83
2019-05-20T06:13:54.443Z,99569.18
2019-05-20T06:16:35.305Z,99568.73
2019-05-20T06:18:45.352Z,99576.80
2019-05-20T06:21:10.010Z,99579.27
2019-05-20T06:23:34.473Z,99582.64
2019-05-20T06:26:00.332Z,99585.97
2019-05-20T06:28:24.807Z,99586.34
2019-05-20T06:30:49.340Z,99583.62
2019-05-20T06:33:13.955Z,99585.69
2019-05-20T06:35:38.542Z,99591.27
2019-05-20T06:38:04.738Z,99601.33
2019-05-20T06:40:29.362Z,99603.84
2019-05-20T06:42:53.835Z,99601.30
2019-05-20T06:45:18.417Z,99598.95
2019-05-20T06:47:42.954Z,99593.44
2019-05-20T06:50:08.805Z,99595.81
2019-05-20T06:52:36.113Z,99605.27
2019-05-20T06:54:59.545Z,99604.14
2019-05-20T06:57:24.178Z,99595.07
2019-05-20T06:59:48.632Z,99606.66
2019-05-20T07:02:13.135Z,99609.71
2019-05-20T07:04:37.580Z,99607.17
2019-05-20T07:07:02.103Z,99603.24
2019-05-20T07:09:26.719Z,99600.62
2019-05-20T07:11:53.097Z,99607.48
2019-05-20T07:14:17.430Z,99605.95
2019-05-20T07:16:41.948Z,99605.00
2019-05-20T07:19:06.496Z,99605.00
2019-05-20T07:21:30.955Z,99603.55
2019-05-20T07:23:55.510Z,99607.60
2019-05-20T07:26:19.993Z,99604.45
2019-05-20T07:28:44.466Z,99615.53
2019-05-20T07:31:08.926Z,99611.47
2019-05-20T07:33:33.477Z,99611.52
2019-05-20T07:35:58.005Z,99615.44
2019-05-20T07:38:22.555Z,99610.98
2019-05-20T07:40:47.094Z,99615.05
2019-05-20T07:43:11.561Z,99607.41
2019-05-20T07:45:36.965Z,99610.03
2019-05-20T07:48:01.679Z,99606.37
2019-05-20T07:50:26.767Z,99610.94
2019-05-20T07:52:51.799Z,99605.98
2019-05-20T07:55:16.491Z,99606.53
2019-05-20T07:57:43.580Z,99609.38
2019-05-20T08:00:11.049Z,99610.13
2019-05-20T08:02:35.659Z,99610.93
2019-05-20T08:05:00.589Z,99600.44
2019-05-20T08:07:30.156Z,99604.95
2019-05-20T08:09:52.292Z,99599.52
2019-05-20T08:12:16.878Z,99599.05
2019-05-20T08:14:41.410Z,99599.08
2019-05-20T08:17:05.939Z,99598.75
2019-05-20T08:19:30.500Z,99602.84
2019-05-20T08:21:55.084Z,99602.38
2019-05-20T08:24:19.802Z,99602.16
2019-05-20T08:26:44.488Z,99597.70
2019-05-20T08:29:09.237Z,99596.29
2019-05-20T08:31:33.699Z,99597.16
2019-05-20T08:33:58.350Z,99598.02
2019-05-20T08:36:23.000Z,99604.45
2019-05-20T08:38:47.781Z,99589.72
2019-05-20T08:41:12.352Z,99596.05
2019-05-20T08:43:36.899Z,99600.47
2019-05-20T08:46:01.354Z,99600.32
2019-05-20T08:48:25.875Z,99597.06
2019-05-20T08:50:50.449Z,99592.95
2019-05-20T08:53:14.919Z,99589.87
2019-05-20T08:55:39.463Z,99596.63
2019-05-20T08:58:03.950Z,99601.16
2019-05-20T09:00:28.692Z,99600.16
2019-05-20T09:02:53.340Z,99594.02
2019-05-20T09:05:17.878Z,99592.22
2019-05-20T09:07:42.392Z,99593.09
2019-05-20T09:10:07.198Z,99596.44
2019-05-20T09:12:31.659Z,99594.92
2019-05-20T09:14:56.196Z,99603.88
2019-05-20T09:17:20.735Z,99600.77
2019-05-20T09:19:47.106Z,99599.70
2019-05-20T09:22:11.495Z,99599.38
2019-05-20T09:24:36.266Z,99596.44
2019-05-20T09:27:00.909Z,99587.27
2019-05-20T09:29:25.444Z,99582.77
2019-05-20T09:31:50.015Z,99582.80
2019-05-20T09:34:15.025Z,99578.11
2019-05-20T09:36:39.469Z,99573.89
2019-05-20T09:39:05.267Z,99575.70
2019-05-20T09:41:29.732Z,99565.98
2019-05-20T09:43:54.197Z,99564.83
2019-05-20T09:46:18.743Z,99562.20
2019-05-20T09:48:43.195Z,99557.30
2019-05-20T09:51:07.740Z,99561.16
2019-05-20T09:53:32.195Z,99555.18
2019-05-20T09:55:56.649Z,99561.44
2019-05-20T09:58:21.097Z,99560.19
2019-05-20T10:00:46.521Z,99559.09
2019-05-20T10:03:10.977Z,99560.72
2019-05-20T10:05:37.351Z,99558.12
2019-05-20T10:08:01.830Z,99557.38
2019-05-20T10:10:26.430Z,99557.38
2019-05-20T10:12:51.019Z,99551.55
2019-05-20T10:15:16.136Z,99558.44
2019-05-20T10:17:40.731Z,99562.53
2019-05-20T10:20:09.405Z,99557.39
2019-05-20T10:22:33.888Z,99556.17
2019-05-20T10:24:58.351Z,99555.25
2019-05-20T10:27:22.961Z,99546.08
2019-05-20T10:29:47.482Z,99548.92
2019-05-20T10:32:12.027Z,99548.92
2019-05-20T10:34:37.619Z,99544.20
2019-05-20T10:37:02.285Z,99548.66
2019-05-20T10:39:26.814Z,99551.98
2019-05-20T10:41:51.347Z,99551.16
2019-05-20T10:44:15.819Z,99552.52
2019-05-20T10:46:40.313Z,99560.86
2019-05-20T10:49:04.834Z,99556.38
2019-05-20T10:51:29.314Z,99553.42
2019-05-20T10:53:53.886Z,99550.54
2019-05-20T10:56:18.369Z,99556.59
2019-05-20T10:58:42.832Z,99559.05
2019-05-20T11:01:07.446Z,99555.61
2019-05-20T11:03:31.959Z,99556.23
2019-05-20T11:05:56.509Z,99557.52
2019-05-20T11:08:21.039Z,99561.97
2019-05-20T11:10:45.491Z,99557.16
2019-05-20T11:13:09.966Z,99554.00
2019-05-20T11:15:34.535Z,99551.39
2019-05-20T11:17:59.013Z,99548.58
2019-05-20T11:20:24.034Z,99543.05
2019-05-20T11:22:48.585Z,99540.00
2019-05-20T11:25:13.492Z,99543.50
2019-05-20T11:27:37.941Z,99544.34
2019-05-20T11:30:02.412Z,99539.46
2019-05-20T11:32:27.303Z,99543.03
2019-05-20T11:34:51.766Z,99542.78
2019-05-20T11:37:16.375Z,99547.16
2019-05-20T11:39:40.870Z,99557.21
2019-05-20T11:42:05.407Z,99544.20
2019-05-20T11:44:29.856Z,99534.91
2019-05-20T11:46:54.327Z,99534.98
2019-05-20T11:49:18.856Z,99535.89
2019-05-20T11:51:43.336Z,99532.77
2019-05-20T11:54:07.850Z,99532.08
2019-05-20T11:56:32.296Z,99526.38
2019-05-20T11:58:59.840Z,99526.33
2019-05-20T12:01:24.346Z,99529.43
2019-05-20T12:03:48.834Z,99520.63
2019-05-20T12:06:13.376Z,99522.20
2019-05-20T12:08:37.837Z,99517.48
2019-05-20T12:11:02.286Z,99512.10
2019-05-20T12:13:27.423Z,99510.65
2019-05-20T12:15:51.871Z,99511.73
2019-05-20T12:18:16.433Z,99501.71
2019-05-20T12:20:40.986Z,99503.34
2019-05-20T12:23:05.455Z,99505.98
2019-05-20T12:25:29.911Z,99500.69
2019-05-20T12:27:54.524Z,99491.48
2019-05-20T12:30:19.327Z,99500.92
2019-05-20T12:32:43.841Z,99495.74
2019-05-20T12:35:08.856Z,99495.30
2019-05-20T12:37:33.344Z,99505.41
2019-05-20T12:40:07.080Z,99498.73
2019-05-20T12:42:24.028Z,99506.72
2019-05-20T12:44:48.462Z,99497.82
2019-05-20T12:47:12.911Z,99488.63
2019-05-20T12:49:37.547Z,99487.33
2019-05-20T12:52:02.068Z,99482.86
2019-05-20T12:54:26.762Z,99477.85
2019-05-20T12:56:51.272Z,99469.33
2019-05-20T12:59:15.917Z,99481.97
2019-05-20T13:01:40.401Z,99469.75
2019-05-20T13:04:05.221Z,99464.89
2019-05-20T13:06:29.701Z,99461.30
2019-05-20T13:08:54.283Z,99468.09
2019-05-20T13:11:18.703Z,99466.48
2019-05-20T13:13:43.537Z,99468.17
2019-05-20T13:16:08.058Z,99469.02
2019-05-20T13:18:32.596Z,99459.58
2019-05-20T13:20:57.051Z,99465.90
2019-05-20T13:23:21.517Z,99461.69
2019-05-20T13:25:45.965Z,99460.00
2019-05-20T13:28:10.421Z,99451.36
2019-05-20T13:30:34.993Z,99438.44
2019-05-20T13:32:59.516Z,99450.50
2019-05-20T13:35:24.032Z,99438.45
2019-05-20T13:37:48.527Z,99434.64
2019-05-20T13:40:13.651Z,99433.64
2019-05-20T13:42:38.244Z,99432.70
2019-05-20T13:45:02.788Z,99434.55
2019-05-20T13:47:27.315Z,99430.73
2019-05-20T13:49:51.856Z,99388.25
2019-05-20T13:52:16.421Z,99424.70
2019-05-20T13:54:40.898Z,99418.39
2019-05-20T13:57:05.437Z,99421.78
2019-05-20T13:59:29.903Z,99421.97
2019-05-20T14:01:54.374Z,99412.29
2019-05-20T14:04:18.912Z,99405.84
2019-05-20T14:06:43.468Z,99399.66
2019-05-20T14:09:08.138Z,99372.80
2019-05-20T14:11:34.854Z,99403.73
2019-05-20T14:13:58.861Z,99394.12
2019-05-20T14:16:23.333Z,99396.36
2019-05-20T14:18:47.786Z,99386.48
2019-05-20T14:21:12.315Z,99387.80
2019-05-20T14:23:36.762Z,99394.34
2019-05-20T14:26:01.203Z,99389.84
2019-05-20T14:28:25.747Z,99391.16
2019-05-20T14:30:50.340Z,99394.09
2019-05-20T14:33:14.855Z,99404.02
2019-05-20T14:35:39.327Z,99393.91
2019-05-20T14:38:03.768Z,99398.03
2019-05-20T14:40:28.236Z,99401.49
2019-05-20T14:42:52.692Z,99379.67
2019-05-20T14:45:17.494Z,99396.00
2019-05-20T14:47:41.924Z,99393.13
2019-05-20T14:50:09.588Z,99397.14
2019-05-20T14:52:34.034Z,99398.78
2019-05-20T14:54:58.491Z,99362.03
2019-05-20T14:57:23.008Z,99391.31
2019-05-20T14:59:47.535Z,99390.41
2019-05-20T15:02:12.091Z,99395.25
2019-05-20T15:04:36.611Z,99391.73
2019-05-20T15:07:01.082Z,99387.28
2019-05-20T15:09:25.568Z,99381.98
2019-05-20T15:11:50.003Z,99388.78
2019-05-20T15:14:14.465Z,99381.07
2019-05-20T15:16:39.054Z,99376.86
2019-05-20T15:19:03.504Z,99381.36
2019-05-20T15:21:29.584Z,99379.89
2019-05-20T15:23:54.166Z,99373.73
2019-05-20T15:26:18.717Z,99381.14
2019-05-20T15:28:43.158Z,99382.77
2019-05-20T15:31:07.720Z,99379.44
2019-05-20T15:33:32.148Z,99388.72
2019-05-20T15:35:56.679Z,99376.23
2019-05-20T15:38:21.117Z,99386.28
2019-05-20T15:40:45.662Z,99380.49
2019-05-20T15:43:10.120Z,99387.70
2019-05-20T15:45:34.682Z,99382.26
2019-05-20T15:47:59.409Z,99381.88
2019-05-20T15:50:23.954Z,99381.48
2019-05-20T15:52:50.999Z,99393.17
2019-05-20T15:55:15.615Z,99389.56
2019-05-20T15:57:40.165Z,99393.25
2019-05-20T16:00:08.062Z,99385.30
2019-05-20T16:02:32.539Z,99392.05
2019-05-20T16:04:57.049Z,99402.05
2019-05-20T16:07:21.533Z,99403.47
2019-05-20T16:09:46.127Z,99401.31
2019-05-20T16:12:10.705Z,99405.69
2019-05-20T16:14:35.492Z,99412.55
2019-05-20T16:16:59.941Z,99416.27
2019-05-20T16:19:24.393Z,99401.08
2019-05-20T16:21:48.881Z,99403.88
2019-05-20T16:24:13.398Z,99397.22
2019-05-20T16:26:38.004Z,99403.22
2019-05-20T16:29:02.551Z,99396.61
2019-05-20T16:31:27.096Z,99395.03
2019-05-20T16:33:51.563Z,99403.02
2019-05-20T16:36:16.018Z,99405.34
2019-05-20T16:38:40.479Z,99407.55
2019-05-20T16:41:05.073Z,99412.98
2019-05-20T16:43:29.530Z,99412.28
2019-05-20T16:45:54.045Z,99412.28
2019-05-20T16:48:18.669Z,99421.05
2019-05-20T16:50:43.119Z,99415.89
2019-05-20T16:53:07.723Z,99419.38
2019-05-20T16:55:32.253Z,99420.63
2019-05-20T16:57:56.885Z,99415.47
2019-05-20T17:00:31.604Z,99418.12
2019-05-20T17:02:47.879Z,99420.16
2019-05-20T17:05:13.780Z,99424.36
2019-05-20T17:07:38.341Z,99428.16
2019-05-20T17:10:03.093Z,99403.42
2019-05-20T17:12:27.690Z,99422.24
2019-05-20T17:14:52.221Z,99421.02
2019-05-20T17:17:16.692Z,99427.09
2019-05-20T17:19:41.135Z,99427.09
2019-05-20T17:22:05.826Z,99425.34
2019-05-20T17:24:30.271Z,99421.27
2019-05-20T17:26:54.917Z,99419.27
2019-05-20T17:29:19.410Z,99421.58
2019-05-20T17:31:43.876Z,99416.44
2019-05-20T17:34:08.408Z,99419.00
2019-05-20T17:36:32.948Z,99419.00
2019-05-20T17:38:57.390Z,99420.34
2019-05-20T17:41:21.854Z,99427.22
2019-05-20T17:43:46.341Z,99423.14
2019-05-20T17:46:10.844Z,99422.67
2019-05-20T17:48:35.511Z,99430.03
2019-05-20T17:51:00.020Z,99430.03
2019-05-20T17:53:24.494Z,99421.31
2019-05-20T17:55:49.031Z,99435.67
2019-05-20T17:58:13.497Z,99435.67
2019-05-20T18:00:38.095Z,99422.95
2019-05-20T18:03:02.657Z,99431.11
2019-05-20T18:05:27.194Z,99422.41
2019-05-20T18:07:51.655Z,99427.50
2019-05-20T18:10:18.007Z,99431.02
2019-05-20T18:12:42.489Z,99430.70
2019-05-20T18:15:07.560Z,99436.59
2019-05-20T18:17:32.128Z,99433.42
2019-05-20T18:19:56.578Z,99439.48
2019-05-20T18:22:21.055Z,99447.27
2019-05-20T18:24:45.546Z,99452.15
2019-05-20T18:27:10.014Z,99448.30
2019-05-20T18:29:34.475Z,99445.38
2019-05-20T18:31:59.063Z,99447.87
2019-05-20T18:34:23.546Z,99450.58
2019-05-20T18:36:48.058Z,99450.91
2019-05-20T18:39:12.609Z,99453.84
2019-05-20T18:41:37.130Z,99450.53
2019-05-20T18:44:01.621Z,99453.88
2019-05-20T18:46:26.132Z,99447.75
2019-05-20T18:48:50.596Z,99455.61
2019-05-20T18:51:15.054Z,99457.61
2019-05-20T18:53:39.596Z,99459.14
2019-05-20T18:56:04.190Z,99464.76
2019-05-20T18:58:28.739Z,99469.73
2019-05-20T19:00:53.261Z,99474.54
2019-05-20T19:03:17.798Z,99475.95
2019-05-20T19:05:42.343Z,99470.41
2019-05-20T19:08:06.980Z,99475.17
2019-05-20T19:10:31.672Z,99467.84
2019-05-20T19:12:56.150Z,99461.15
2019-05-20T19:15:20.851Z,99450.80
2019-05-20T19:17:45.356Z,99441.99
2019-05-20T19:20:09.947Z,99448.00
2019-05-20T19:22:34.454Z,99447.77
2019-05-20T19:24:58.929Z,99445.45
2019-05-20T19:27:23.367Z,99442.25
2019-05-20T19:29:47.922Z,99438.84
2019-05-20T19:32:14.150Z,99439.61
2019-05-20T19:34:38.712Z,99444.70
2019-05-20T19:37:03.208Z,99445.88
2019-05-20T19:39:27.898Z,99444.19
2019-05-20T19:41:52.415Z,99436.00
2019-05-20T19:44:16.901Z,99440.80
2019-05-20T19:46:41.352Z,99443.45
2019-05-20T19:49:05.949Z,99435.95
2019-05-20T19:51:30.467Z,99433.55
2019-05-20T19:53:55.006Z,99430.87
2019-05-20T19:56:19.459Z,99421.79
2019-05-20T19:58:43.945Z,99423.16
2019-05-20T20:01:08.515Z,99388.91
2019-05-20T20:03:33.118Z,99409.75
2019-05-20T20:05:57.659Z,99410.12
2019-05-20T20:08:22.133Z,99408.91
2019-05-20T20:10:46.570Z,99411.65
2019-05-20T20:13:11.200Z,99405.94
2019-05-20T20:15:35.765Z,99408.59
2019-05-20T20:18:00.207Z,99417.30
2019-05-20T20:20:24.681Z,99428.42
2019-05-20T20:22:49.265Z,99435.48
2019-05-20T20:27:37.192Z,99434.45
2019-05-20T20:30:01.662Z,99434.04
2019-05-20T20:32:37.553Z,99436.63
2019-05-20T20:34:52.310Z,99437.14
2019-05-20T20:37:16.824Z,99440.19
2019-05-20T20:39:41.285Z,99441.19
2019-05-20T20:42:05.753Z,99445.03
2019-05-20T20:44:30.237Z,99442.86
2019-05-20T20:46:54.685Z,99453.49
2019-05-20T20:49:19.132Z,99451.11
2019-05-20T20:51:43.647Z,99442.78
2019-05-20T20:54:08.176Z,99442.28
2019-05-20T20:56:34.337Z,99451.03
2019-05-20T20:58:59.075Z,99443.67
2019-05-20T21:01:23.591Z,99445.16
2019-05-20T21:03:48.085Z,99447.71
2019-05-20T21:06:12.694Z,99429.51
2019-05-20T21:08:37.227Z,99442.48
2019-05-20T21:11:01.690Z,99448.03
2019-05-20T21:13:26.243Z,99444.03
2019-05-20T21:15:50.709Z,99446.63
2019-05-20T21:18:15.145Z,99437.25
2019-05-20T21:20:39.736Z,99424.81
2019-05-20T21:23:04.192Z,99429.71
2019-05-20T21:25:28.790Z,99440.89
2019-05-20T21:27:53.340Z,99442.06
2019-05-20T21:30:19.407Z,99445.36
2019-05-20T21:32:43.861Z,99444.16
2019-05-20T21:35:08.654Z,99447.47
2019-05-20T21:37:33.163Z,99450.74
2019-05-20T21:39:57.629Z,99448.83
2019-05-20T21:42:22.094Z,99445.30
2019-05-20T21:44:46.678Z,99445.48
2019-05-20T21:47:11.317Z,99445.13
2019-05-20T21:49:35.801Z,99454.82
2019-05-20T21:52:00.228Z,99452.61
2019-05-20T21:54:25.466Z,99443.94
2019-05-20T21:56:50.239Z,99455.20
2019-05-20T21:59:14.796Z,99452.33
2019-05-20T22:01:39.279Z,99459.80
2019-05-20T22:04:03.859Z,99460.94
2019-05-20T22:06:28.466Z,99459.41
2019-05-20T22:08:52.911Z,99452.69
2019-05-20T22:11:17.461Z,99453.13
2019-05-20T22:13:42.014Z,99442.06
2019-05-20T22:16:06.632Z,99447.48
2019-05-20T22:18:31.091Z,99439.72
2019-05-20T22:20:55.555Z,99446.98
2019-05-20T22:23:24.726Z,99439.70
2019-05-20T22:25:50.840Z,99444.09
2019-05-20T22:28:15.283Z,99443.34
2019-05-20T22:30:39.831Z,99441.80
2019-05-20T22:33:04.289Z,99450.74
2019-05-20T22:35:28.834Z,99445.06
2019-05-20T22:37:53.277Z,99435.70
2019-05-20T22:40:17.904Z,99439.78
2019-05-20T22:42:42.391Z,99439.44
2019-05-20T22:45:06.991Z,99435.20
2019-05-20T22:47:31.471Z,99442.94
2019-05-20T22:49:55.950Z,99440.11
2019-05-20T22:52:20.426Z,99439.91
2019-05-20T22:54:44.873Z,99445.57
2019-05-20T22:57:09.343Z,99439.16
2019-05-20T22:59:33.798Z,99441.88
2019-05-20T23:01:58.329Z,99440.16
2019-05-20T23:04:22.783Z,99441.16
2019-05-20T23:06:47.366Z,99439.12
2019-05-20T23:09:14.768Z,99435.97
2019-05-20T23:11:37.954Z,99444.93
2019-05-20T23:14:02.505Z,99435.85
2019-05-20T23:16:26.992Z,99439.28
2019-05-20T23:18:51.433Z,99434.20
2019-05-20T23:21:15.907Z,99431.34
2019-05-20T23:23:40.421Z,99426.78
2019-05-20T23:26:04.883Z,99415.47
2019-05-20T23:28:29.358Z,99421.44
2019-05-20T23:30:53.795Z,99426.78
2019-05-20T23:33:18.383Z,99439.66
2019-05-20T23:35:42.866Z,99437.55
2019-05-20T23:38:07.399Z,99436.23
2019-05-20T23:40:31.866Z,99437.19
2019-05-20T23:42:56.346Z,99438.05
2019-05-20T23:45:20.951Z,99434.78
2019-05-20T23:47:45.467Z,99440.07
2019-05-20T23:50:10.396Z,99445.52
2019-05-20T23:52:34.861Z,99444.28
2019-05-20T23:54:59.487Z,99443.30
2019-05-20T23:57:23.968Z,99447.43
2019-05-20T23:59:48.480Z,99447.31
